sensor_id;sensor_type;location;lat;lon;timestamp;P1;durP1;ratioP1;P2;durP2;ratioP2
56752;SDS011;42627;42.646;23.642;2023-03-24T00:02:13;9.82;;;5.13;;
56752;SDS011;42627;42.646;23.642;2023-03-24T00:04:15;11.02;;;5.30;;
56752;SDS011;42627;42.646;23.642;2023-03-24T00:06:16;7.60;;;4.20;;
56752;SDS011;42627;42.646;23.642;2023-03-24T00:08:17;9.95;;;4.30;;
56752;SDS011;42627;42.646;23.642;2023-03-24T00:10:19;8.80;;;4.95;;
56752;SDS011;42627;42.646;23.642;2023-03-24T00:12:23;9.88;;;5.22;;
56752;SDS011;42627;42.646;23.642;2023-03-24T00:14:24;14.98;;;6.25;;
56752;SDS011;42627;42.646;23.642;2023-03-24T00:21:44;10.43;;;5.00;;
56752;SDS011;42627;42.646;23.642;2023-03-24T00:23:44;9.00;;;4.70;;
56752;SDS011;42627;42.646;23.642;2023-03-24T00:25:46;11.20;;;5.28;;
56752;SDS011;42627;42.646;23.642;2023-03-24T00:27:48;9.85;;;4.45;;
56752;SDS011;42627;42.646;23.642;2023-03-24T00:29:59;11.13;;;4.53;;
56752;SDS011;42627;42.646;23.642;2023-03-24T00:32:00;12.55;;;5.07;;
56752;SDS011;42627;42.646;23.642;2023-03-24T00:34:00;7.93;;;3.95;;
56752;SDS011;42627;42.646;23.642;2023-03-24T00:36:02;11.73;;;4.95;;
56752;SDS011;42627;42.646;23.642;2023-03-24T00:38:05;10.05;;;4.80;;
56752;SDS011;42627;42.646;23.642;2023-03-24T00:40:11;13.45;;;5.75;;
56752;SDS011;42627;42.646;23.642;2023-03-24T00:42:18;11.55;;;5.25;;
56752;SDS011;42627;42.646;23.642;2023-03-24T00:44:18;12.13;;;5.15;;
56752;SDS011;42627;42.646;23.642;2023-03-24T00:46:23;11.60;;;4.60;;
56752;SDS011;42627;42.646;23.642;2023-03-24T00:48:27;9.90;;;4.47;;
56752;SDS011;42627;42.646;23.642;2023-03-24T00:50:29;11.20;;;4.45;;
56752;SDS011;42627;42.646;23.642;2023-03-24T00:52:32;9.50;;;4.40;;
56752;SDS011;42627;42.646;23.642;2023-03-24T00:54:33;8.18;;;4.05;;
56752;SDS011;42627;42.646;23.642;2023-03-24T00:56:49;11.10;;;4.57;;
56752;SDS011;42627;42.646;23.642;2023-03-24T00:59:21;8.38;;;3.95;;
56752;SDS011;42627;42.646;23.642;2023-03-24T01:01:25;11.13;;;4.38;;
56752;SDS011;42627;42.646;23.642;2023-03-24T01:16:18;7.80;;;4.40;;
56752;SDS011;42627;42.646;23.642;2023-03-24T01:18:21;12.65;;;4.80;;
56752;SDS011;42627;42.646;23.642;2023-03-24T01:20:24;10.70;;;5.03;;
56752;SDS011;42627;42.646;23.642;2023-03-24T01:22:28;16.00;;;7.22;;
56752;SDS011;42627;42.646;23.642;2023-03-24T01:24:29;28.77;;;11.80;;
56752;SDS011;42627;42.646;23.642;2023-03-24T01:26:30;28.17;;;12.07;;
56752;SDS011;42627;42.646;23.642;2023-03-24T01:28:30;40.95;;;17.05;;
56752;SDS011;42627;42.646;23.642;2023-03-24T01:33:02;16.10;;;7.35;;
56752;SDS011;42627;42.646;23.642;2023-03-24T01:35:17;15.00;;;6.10;;
56752;SDS011;42627;42.646;23.642;2023-03-24T01:37:19;12.48;;;5.63;;
56752;SDS011;42627;42.646;23.642;2023-03-24T01:39:19;12.48;;;5.38;;
56752;SDS011;42627;42.646;23.642;2023-03-24T01:41:20;12.77;;;5.40;;
56752;SDS011;42627;42.646;23.642;2023-03-24T01:43:22;12.75;;;5.35;;
56752;SDS011;42627;42.646;23.642;2023-03-24T01:47:38;10.98;;;5.93;;
56752;SDS011;42627;42.646;23.642;2023-03-24T01:49:53;11.80;;;4.70;;
56752;SDS011;42627;42.646;23.642;2023-03-24T01:51:57;11.95;;;5.20;;
56752;SDS011;42627;42.646;23.642;2023-03-24T01:56:03;13.95;;;5.75;;
56752;SDS011;42627;42.646;23.642;2023-03-24T01:58:06;12.88;;;5.00;;
56752;SDS011;42627;42.646;23.642;2023-03-24T02:02:53;9.75;;;4.80;;
56752;SDS011;42627;42.646;23.642;2023-03-24T02:05:04;9.38;;;4.60;;
56752;SDS011;42627;42.646;23.642;2023-03-24T02:09:46;9.73;;;4.60;;
56752;SDS011;42627;42.646;23.642;2023-03-24T02:11:47;12.07;;;6.30;;
56752;SDS011;42627;42.646;23.642;2023-03-24T02:13:48;13.82;;;6.72;;
56752;SDS011;42627;42.646;23.642;2023-03-24T02:15:52;10.60;;;5.68;;
56752;SDS011;42627;42.646;23.642;2023-03-24T02:18:22;9.75;;;5.28;;
56752;SDS011;42627;42.646;23.642;2023-03-24T02:23:21;14.50;;;7.03;;
56752;SDS011;42627;42.646;23.642;2023-03-24T02:28:21;15.05;;;7.55;;
56752;SDS011;42627;42.646;23.642;2023-03-24T02:51:31;15.77;;;7.72;;
56752;SDS011;42627;42.646;23.642;2023-03-24T02:56:12;15.70;;;7.40;;
56752;SDS011;42627;42.646;23.642;2023-03-24T02:58:22;13.32;;;6.97;;
56752;SDS011;42627;42.646;23.642;2023-03-24T03:08:35;6.85;;;4.25;;
56752;SDS011;42627;42.646;23.642;2023-03-24T03:10:41;11.02;;;5.03;;
56752;SDS011;42627;42.646;23.642;2023-03-24T03:12:45;9.18;;;4.47;;
56752;SDS011;42627;42.646;23.642;2023-03-24T03:14:51;8.18;;;4.32;;
56752;SDS011;42627;42.646;23.642;2023-03-24T03:17:08;7.13;;;3.60;;
56752;SDS011;42627;42.646;23.642;2023-03-24T03:19:18;9.02;;;4.10;;
56752;SDS011;42627;42.646;23.642;2023-03-24T03:21:22;8.52;;;4.35;;
56752;SDS011;42627;42.646;23.642;2023-03-24T03:23:28;7.88;;;3.97;;
56752;SDS011;42627;42.646;23.642;2023-03-24T03:25:43;12.70;;;6.25;;
56752;SDS011;42627;42.646;23.642;2023-03-24T03:27:49;13.30;;;4.70;;
56752;SDS011;42627;42.646;23.642;2023-03-24T03:37:00;9.10;;;4.10;;
56752;SDS011;42627;42.646;23.642;2023-03-24T03:39:24;10.77;;;4.68;;
56752;SDS011;42627;42.646;23.642;2023-03-24T03:41:28;11.20;;;4.45;;
56752;SDS011;42627;42.646;23.642;2023-03-24T03:43:30;8.88;;;4.53;;
56752;SDS011;42627;42.646;23.642;2023-03-24T03:45:32;10.35;;;3.92;;
56752;SDS011;42627;42.646;23.642;2023-03-24T03:49:53;10.15;;;4.25;;
56752;SDS011;42627;42.646;23.642;2023-03-24T03:51:54;8.82;;;4.03;;
56752;SDS011;42627;42.646;23.642;2023-03-24T03:53:57;11.68;;;5.00;;
56752;SDS011;42627;42.646;23.642;2023-03-24T03:56:00;8.18;;;4.05;;
56752;SDS011;42627;42.646;23.642;2023-03-24T04:00:35;8.80;;;4.68;;
56752;SDS011;42627;42.646;23.642;2023-03-24T04:10:20;10.90;;;3.60;;
56752;SDS011;42627;42.646;23.642;2023-03-24T04:12:40;9.35;;;4.25;;
56752;SDS011;42627;42.646;23.642;2023-03-24T04:20:10;9.43;;;5.32;;
56752;SDS011;42627;42.646;23.642;2023-03-24T04:22:25;12.82;;;4.43;;
56752;SDS011;42627;42.646;23.642;2023-03-24T04:24:42;9.85;;;4.80;;
56752;SDS011;42627;42.646;23.642;2023-03-24T04:34:54;13.82;;;5.65;;
56752;SDS011;42627;42.646;23.642;2023-03-24T04:37:13;9.73;;;5.65;;
56752;SDS011;42627;42.646;23.642;2023-03-24T04:39:23;8.93;;;5.20;;
56752;SDS011;42627;42.646;23.642;2023-03-24T04:41:28;16.90;;;5.25;;
56752;SDS011;42627;42.646;23.642;2023-03-24T04:43:31;13.60;;;6.70;;
56752;SDS011;42627;42.646;23.642;2023-03-24T04:45:35;12.67;;;7.40;;
56752;SDS011;42627;42.646;23.642;2023-03-24T04:47:45;22.40;;;9.85;;
56752;SDS011;42627;42.646;23.642;2023-03-24T04:51:59;24.33;;;12.88;;
56752;SDS011;42627;42.646;23.642;2023-03-24T04:54:00;22.00;;;13.27;;
56752;SDS011;42627;42.646;23.642;2023-03-24T04:58:22;15.98;;;8.75;;
56752;SDS011;42627;42.646;23.642;2023-03-24T05:03:01;14.73;;;9.15;;
56752;SDS011;42627;42.646;23.642;2023-03-24T05:05:02;15.13;;;9.18;;
56752;SDS011;42627;42.646;23.642;2023-03-24T05:07:03;13.38;;;7.40;;
56752;SDS011;42627;42.646;23.642;2023-03-24T05:09:06;9.93;;;4.35;;
56752;SDS011;42627;42.646;23.642;2023-03-24T05:11:07;16.27;;;6.43;;
56752;SDS011;42627;42.646;23.642;2023-03-24T05:13:08;81.05;;;20.48;;
56752;SDS011;42627;42.646;23.642;2023-03-24T05:15:10;75.38;;;20.55;;
56752;SDS011;42627;42.646;23.642;2023-03-24T05:19:22;14.40;;;6.28;;
56752;SDS011;42627;42.646;23.642;2023-03-24T05:21:22;15.50;;;6.15;;
56752;SDS011;42627;42.646;23.642;2023-03-24T05:23:23;25.90;;;8.13;;
56752;SDS011;42627;42.646;23.642;2023-03-24T05:25:24;20.58;;;9.02;;
56752;SDS011;42627;42.646;23.642;2023-03-24T05:27:28;27.30;;;9.35;;
56752;SDS011;42627;42.646;23.642;2023-03-24T05:29:44;22.92;;;6.90;;
56752;SDS011;42627;42.646;23.642;2023-03-24T05:31:59;13.85;;;6.00;;
56752;SDS011;42627;42.646;23.642;2023-03-24T05:34:00;9.93;;;5.00;;
56752;SDS011;42627;42.646;23.642;2023-03-24T05:36:01;11.32;;;4.95;;
56752;SDS011;42627;42.646;23.642;2023-03-24T05:38:02;11.60;;;5.75;;
56752;SDS011;42627;42.646;23.642;2023-03-24T05:40:03;12.95;;;6.40;;
56752;SDS011;42627;42.646;23.642;2023-03-24T05:42:04;10.90;;;5.78;;
56752;SDS011;42627;42.646;23.642;2023-03-24T05:44:05;10.52;;;4.78;;
56752;SDS011;42627;42.646;23.642;2023-03-24T05:48:19;14.52;;;6.05;;
56752;SDS011;42627;42.646;23.642;2023-03-24T05:50:20;19.85;;;7.55;;
56752;SDS011;42627;42.646;23.642;2023-03-24T05:52:22;16.08;;;6.22;;
56752;SDS011;42627;42.646;23.642;2023-03-24T05:54:23;13.98;;;6.07;;
56752;SDS011;42627;42.646;23.642;2023-03-24T05:56:25;11.13;;;4.90;;
56752;SDS011;42627;42.646;23.642;2023-03-24T05:58:26;9.13;;;4.03;;
56752;SDS011;42627;42.646;23.642;2023-03-24T06:06:58;10.63;;;5.03;;
56752;SDS011;42627;42.646;23.642;2023-03-24T06:09:03;12.88;;;5.40;;
56752;SDS011;42627;42.646;23.642;2023-03-24T06:11:04;11.68;;;5.30;;
56752;SDS011;42627;42.646;23.642;2023-03-24T06:13:13;15.77;;;6.47;;
56752;SDS011;42627;42.646;23.642;2023-03-24T06:15:23;13.80;;;7.15;;
56752;SDS011;42627;42.646;23.642;2023-03-24T06:17:38;13.75;;;6.72;;
56752;SDS011;42627;42.646;23.642;2023-03-24T06:19:42;15.88;;;7.43;;
56752;SDS011;42627;42.646;23.642;2023-03-24T06:21:48;14.02;;;7.50;;
56752;SDS011;42627;42.646;23.642;2023-03-24T06:23:49;15.65;;;6.93;;
56752;SDS011;42627;42.646;23.642;2023-03-24T06:25:51;13.27;;;5.65;;
56752;SDS011;42627;42.646;23.642;2023-03-24T06:27:52;11.63;;;5.35;;
56752;SDS011;42627;42.646;23.642;2023-03-24T06:29:53;10.93;;;4.90;;
56752;SDS011;42627;42.646;23.642;2023-03-24T06:31:54;10.35;;;4.90;;
56752;SDS011;42627;42.646;23.642;2023-03-24T06:33:54;11.13;;;5.00;;
56752;SDS011;42627;42.646;23.642;2023-03-24T06:35:55;12.02;;;6.03;;
56752;SDS011;42627;42.646;23.642;2023-03-24T06:37:56;9.73;;;4.55;;
56752;SDS011;42627;42.646;23.642;2023-03-24T06:39:56;11.18;;;5.22;;
56752;SDS011;42627;42.646;23.642;2023-03-24T06:41:57;16.25;;;5.72;;
56752;SDS011;42627;42.646;23.642;2023-03-24T06:43:58;15.27;;;6.45;;
56752;SDS011;42627;42.646;23.642;2023-03-24T06:45:58;18.10;;;7.18;;
56752;SDS011;42627;42.646;23.642;2023-03-24T06:48:00;19.65;;;7.85;;
56752;SDS011;42627;42.646;23.642;2023-03-24T06:50:00;22.80;;;9.32;;
56752;SDS011;42627;42.646;23.642;2023-03-24T06:52:02;23.40;;;9.63;;
56752;SDS011;42627;42.646;23.642;2023-03-24T06:54:03;25.00;;;8.80;;
56752;SDS011;42627;42.646;23.642;2023-03-24T06:56:04;22.92;;;10.07;;
56752;SDS011;42627;42.646;23.642;2023-03-24T06:58:05;22.10;;;9.90;;
56752;SDS011;42627;42.646;23.642;2023-03-24T07:00:06;19.70;;;8.48;;
56752;SDS011;42627;42.646;23.642;2023-03-24T07:02:09;22.70;;;9.23;;
56752;SDS011;42627;42.646;23.642;2023-03-24T07:04:11;17.92;;;7.82;;
56752;SDS011;42627;42.646;23.642;2023-03-24T07:06:12;18.67;;;7.78;;
56752;SDS011;42627;42.646;23.642;2023-03-24T07:08:12;15.35;;;6.78;;
56752;SDS011;42627;42.646;23.642;2023-03-24T07:10:13;15.00;;;6.95;;
56752;SDS011;42627;42.646;23.642;2023-03-24T07:12:14;17.08;;;7.05;;
56752;SDS011;42627;42.646;23.642;2023-03-24T07:14:15;17.95;;;7.43;;
56752;SDS011;42627;42.646;23.642;2023-03-24T07:16:24;13.50;;;6.43;;
56752;SDS011;42627;42.646;23.642;2023-03-24T07:18:25;14.55;;;6.10;;
56752;SDS011;42627;42.646;23.642;2023-03-24T07:20:26;12.38;;;6.28;;
56752;SDS011;42627;42.646;23.642;2023-03-24T07:22:27;14.05;;;6.88;;
56752;SDS011;42627;42.646;23.642;2023-03-24T07:24:28;11.98;;;6.32;;
56752;SDS011;42627;42.646;23.642;2023-03-24T07:26:38;12.55;;;6.75;;
56752;SDS011;42627;42.646;23.642;2023-03-24T07:28:51;13.40;;;6.25;;
56752;SDS011;42627;42.646;23.642;2023-03-24T07:31:02;14.35;;;6.65;;
56752;SDS011;42627;42.646;23.642;2023-03-24T07:33:03;11.60;;;6.00;;
56752;SDS011;42627;42.646;23.642;2023-03-24T07:35:07;13.10;;;6.18;;
56752;SDS011;42627;42.646;23.642;2023-03-24T07:37:12;15.43;;;6.45;;
56752;SDS011;42627;42.646;23.642;2023-03-24T07:39:14;11.77;;;4.95;;
56752;SDS011;42627;42.646;23.642;2023-03-24T07:41:15;14.13;;;5.50;;
56752;SDS011;42627;42.646;23.642;2023-03-24T07:43:16;11.85;;;5.60;;
56752;SDS011;42627;42.646;23.642;2023-03-24T07:45:17;11.00;;;5.07;;
56752;SDS011;42627;42.646;23.642;2023-03-24T07:47:18;11.85;;;5.35;;
56752;SDS011;42627;42.646;23.642;2023-03-24T07:49:20;11.85;;;6.43;;
56752;SDS011;42627;42.646;23.642;2023-03-24T07:51:21;12.07;;;5.53;;
56752;SDS011;42627;42.646;23.642;2023-03-24T07:53:22;10.30;;;5.43;;
56752;SDS011;42627;42.646;23.642;2023-03-24T07:55:23;10.75;;;5.35;;
56752;SDS011;42627;42.646;23.642;2023-03-24T07:57:25;12.82;;;6.07;;
56752;SDS011;42627;42.646;23.642;2023-03-24T07:59:26;13.00;;;6.30;;
56752;SDS011;42627;42.646;23.642;2023-03-24T08:01:32;11.77;;;6.28;;
56752;SDS011;42627;42.646;23.642;2023-03-24T08:06:50;10.07;;;5.10;;
56752;SDS011;42627;42.646;23.642;2023-03-24T08:08:52;13.57;;;6.45;;
56752;SDS011;42627;42.646;23.642;2023-03-24T08:10:53;15.05;;;6.90;;
56752;SDS011;42627;42.646;23.642;2023-03-24T08:12:54;14.15;;;7.20;;
56752;SDS011;42627;42.646;23.642;2023-03-24T08:14:55;13.07;;;6.53;;
56752;SDS011;42627;42.646;23.642;2023-03-24T08:17:02;13.20;;;7.22;;
56752;SDS011;42627;42.646;23.642;2023-03-24T08:19:02;14.73;;;7.53;;
56752;SDS011;42627;42.646;23.642;2023-03-24T08:21:04;12.88;;;7.35;;
56752;SDS011;42627;42.646;23.642;2023-03-24T08:23:05;14.65;;;6.43;;
56752;SDS011;42627;42.646;23.642;2023-03-24T08:25:11;13.00;;;6.68;;
56752;SDS011;42627;42.646;23.642;2023-03-24T08:27:12;11.43;;;6.68;;
56752;SDS011;42627;42.646;23.642;2023-03-24T08:29:13;15.80;;;7.32;;
56752;SDS011;42627;42.646;23.642;2023-03-24T08:31:20;15.23;;;7.43;;
56752;SDS011;42627;42.646;23.642;2023-03-24T08:33:20;12.98;;;6.88;;
56752;SDS011;42627;42.646;23.642;2023-03-24T08:35:24;12.90;;;6.60;;
56752;SDS011;42627;42.646;23.642;2023-03-24T08:37:26;11.00;;;6.40;;
56752;SDS011;42627;42.646;23.642;2023-03-24T08:39:27;15.73;;;8.25;;
56752;SDS011;42627;42.646;23.642;2023-03-24T08:41:43;14.07;;;7.65;;
56752;SDS011;42627;42.646;23.642;2023-03-24T08:46:23;14.32;;;6.75;;
56752;SDS011;42627;42.646;23.642;2023-03-24T08:48:24;13.50;;;6.75;;
56752;SDS011;42627;42.646;23.642;2023-03-24T08:50:28;15.68;;;7.45;;
56752;SDS011;42627;42.646;23.642;2023-03-24T08:52:31;13.52;;;7.50;;
56752;SDS011;42627;42.646;23.642;2023-03-24T08:54:32;12.43;;;7.20;;
56752;SDS011;42627;42.646;23.642;2023-03-24T08:56:38;14.88;;;6.75;;
56752;SDS011;42627;42.646;23.642;2023-03-24T08:58:42;14.60;;;7.38;;
56752;SDS011;42627;42.646;23.642;2023-03-24T09:00:55;14.73;;;7.32;;
56752;SDS011;42627;42.646;23.642;2023-03-24T09:02:56;15.10;;;6.95;;
56752;SDS011;42627;42.646;23.642;2023-03-24T09:04:59;16.75;;;9.07;;
56752;SDS011;42627;42.646;23.642;2023-03-24T09:07:00;14.02;;;8.02;;
56752;SDS011;42627;42.646;23.642;2023-03-24T09:09:01;17.75;;;9.18;;
56752;SDS011;42627;42.646;23.642;2023-03-24T09:11:15;19.63;;;8.50;;
56752;SDS011;42627;42.646;23.642;2023-03-24T09:13:32;17.65;;;8.55;;
56752;SDS011;42627;42.646;23.642;2023-03-24T09:15:52;17.35;;;8.43;;
56752;SDS011;42627;42.646;23.642;2023-03-24T09:17:53;16.33;;;8.48;;
56752;SDS011;42627;42.646;23.642;2023-03-24T09:19:54;18.58;;;9.23;;
56752;SDS011;42627;42.646;23.642;2023-03-24T09:21:56;17.33;;;8.40;;
56752;SDS011;42627;42.646;23.642;2023-03-24T09:23:57;21.17;;;8.85;;
56752;SDS011;42627;42.646;23.642;2023-03-24T09:25:58;14.95;;;7.80;;
56752;SDS011;42627;42.646;23.642;2023-03-24T09:27:59;18.00;;;9.13;;
56752;SDS011;42627;42.646;23.642;2023-03-24T09:30:01;17.08;;;8.20;;
56752;SDS011;42627;42.646;23.642;2023-03-24T09:32:08;18.80;;;8.27;;
56752;SDS011;42627;42.646;23.642;2023-03-24T09:34:09;15.25;;;8.52;;
56752;SDS011;42627;42.646;23.642;2023-03-24T09:36:10;17.95;;;8.88;;
56752;SDS011;42627;42.646;23.642;2023-03-24T09:38:11;14.82;;;7.85;;
56752;SDS011;42627;42.646;23.642;2023-03-24T09:40:16;17.30;;;8.73;;
56752;SDS011;42627;42.646;23.642;2023-03-24T10:02:13;16.80;;;7.30;;
56752;SDS011;42627;42.646;23.642;2023-03-24T10:04:15;12.52;;;6.80;;
56752;SDS011;42627;42.646;23.642;2023-03-24T10:06:28;12.90;;;7.07;;
56752;SDS011;42627;42.646;23.642;2023-03-24T10:08:31;12.40;;;6.65;;
56752;SDS011;42627;42.646;23.642;2023-03-24T10:16:35;12.73;;;6.15;;
56752;SDS011;42627;42.646;23.642;2023-03-24T10:31:58;9.48;;;4.97;;
56752;SDS011;42627;42.646;23.642;2023-03-24T10:34:02;11.40;;;4.75;;
56752;SDS011;42627;42.646;23.642;2023-03-24T10:36:07;10.40;;;5.38;;
56752;SDS011;42627;42.646;23.642;2023-03-24T10:38:18;8.73;;;5.05;;
56752;SDS011;42627;42.646;23.642;2023-03-24T10:45:35;10.02;;;4.30;;
56752;SDS011;42627;42.646;23.642;2023-03-24T10:47:39;10.40;;;4.68;;
56752;SDS011;42627;42.646;23.642;2023-03-24T10:52:12;9.98;;;4.97;;
56752;SDS011;42627;42.646;23.642;2023-03-24T10:56:37;7.65;;;3.67;;
56752;SDS011;42627;42.646;23.642;2023-03-24T10:58:39;7.72;;;3.15;;
56752;SDS011;42627;42.646;23.642;2023-03-24T11:02:53;7.40;;;4.18;;
56752;SDS011;42627;42.646;23.642;2023-03-24T11:04:59;9.52;;;4.47;;
56752;SDS011;42627;42.646;23.642;2023-03-24T11:09:19;6.75;;;3.50;;
56752;SDS011;42627;42.646;23.642;2023-03-24T11:13:29;5.82;;;2.55;;
56752;SDS011;42627;42.646;23.642;2023-03-24T11:23:43;5.15;;;2.58;;
56752;SDS011;42627;42.646;23.642;2023-03-24T11:25:46;4.38;;;2.45;;
56752;SDS011;42627;42.646;23.642;2023-03-24T11:32:46;3.42;;;1.85;;
56752;SDS011;42627;42.646;23.642;2023-03-24T11:37:12;4.95;;;2.30;;
56752;SDS011;42627;42.646;23.642;2023-03-24T11:39:15;4.82;;;1.98;;
56752;SDS011;42627;42.646;23.642;2023-03-24T11:41:18;4.68;;;1.90;;
56752;SDS011;42627;42.646;23.642;2023-03-24T11:43:21;5.18;;;2.50;;
56752;SDS011;42627;42.646;23.642;2023-03-24T11:45:38;3.92;;;1.95;;
56752;SDS011;42627;42.646;23.642;2023-03-24T11:47:40;5.97;;;2.10;;
56752;SDS011;42627;42.646;23.642;2023-03-24T11:50:42;5.15;;;2.40;;
56752;SDS011;42627;42.646;23.642;2023-03-24T11:55:33;4.50;;;2.00;;
56752;SDS011;42627;42.646;23.642;2023-03-24T11:59:39;4.05;;;1.83;;
56752;SDS011;42627;42.646;23.642;2023-03-24T12:06:44;3.60;;;1.98;;
56752;SDS011;42627;42.646;23.642;2023-03-24T12:28:35;3.35;;;1.70;;
56752;SDS011;42627;42.646;23.642;2023-03-24T13:09:16;3.00;;;1.60;;
56752;SDS011;42627;42.646;23.642;2023-03-24T13:11:42;3.65;;;1.60;;
56752;SDS011;42627;42.646;23.642;2023-03-24T13:13:51;2.80;;;1.50;;
56752;SDS011;42627;42.646;23.642;2023-03-24T13:15:53;3.50;;;1.63;;
56752;SDS011;42627;42.646;23.642;2023-03-24T13:20:12;3.00;;;1.30;;
56752;SDS011;42627;42.646;23.642;2023-03-24T13:22:14;3.60;;;1.67;;
56752;SDS011;42627;42.646;23.642;2023-03-24T13:31:48;3.42;;;1.67;;
56752;SDS011;42627;42.646;23.642;2023-03-24T13:33:51;7.32;;;2.10;;
56752;SDS011;42627;42.646;23.642;2023-03-24T13:40:28;3.72;;;1.50;;
56752;SDS011;42627;42.646;23.642;2023-03-24T13:46:37;3.05;;;1.38;;
56752;SDS011;42627;42.646;23.642;2023-03-24T13:48:41;2.97;;;1.38;;
56752;SDS011;42627;42.646;23.642;2023-03-24T13:50:56;3.10;;;1.50;;
56752;SDS011;42627;42.646;23.642;2023-03-24T13:53:02;3.53;;;1.33;;
56752;SDS011;42627;42.646;23.642;2023-03-24T13:55:10;2.83;;;1.27;;
56752;SDS011;42627;42.646;23.642;2023-03-24T13:57:15;3.00;;;1.30;;
56752;SDS011;42627;42.646;23.642;2023-03-24T14:01:39;2.30;;;1.08;;
56752;SDS011;42627;42.646;23.642;2023-03-24T14:04:13;6.05;;;1.58;;
56752;SDS011;42627;42.646;23.642;2023-03-24T14:13:33;2.35;;;1.25;;
56752;SDS011;42627;42.646;23.642;2023-03-24T14:15:44;2.17;;;1.10;;
56752;SDS011;42627;42.646;23.642;2023-03-24T14:17:47;2.63;;;1.20;;
56752;SDS011;42627;42.646;23.642;2023-03-24T14:24:28;4.72;;;1.60;;
56752;SDS011;42627;42.646;23.642;2023-03-24T14:26:32;2.63;;;1.50;;
56752;SDS011;42627;42.646;23.642;2023-03-24T14:30:35;1.95;;;1.23;;
56752;SDS011;42627;42.646;23.642;2023-03-24T14:32:43;3.70;;;1.50;;
56752;SDS011;42627;42.646;23.642;2023-03-24T14:40:00;2.22;;;1.20;;
56752;SDS011;42627;42.646;23.642;2023-03-24T14:42:24;4.70;;;1.40;;
56752;SDS011;42627;42.646;23.642;2023-03-24T14:46:44;2.08;;;1.05;;
56752;SDS011;42627;42.646;23.642;2023-03-24T14:49:12;2.15;;;1.25;;
56752;SDS011;42627;42.646;23.642;2023-03-24T14:51:46;3.28;;;1.40;;
56752;SDS011;42627;42.646;23.642;2023-03-24T14:53:57;4.45;;;1.52;;
56752;SDS011;42627;42.646;23.642;2023-03-24T14:58:01;2.97;;;1.52;;
56752;SDS011;42627;42.646;23.642;2023-03-24T15:02:50;3.00;;;1.70;;
56752;SDS011;42627;42.646;23.642;2023-03-24T15:10:21;4.88;;;2.40;;
56752;SDS011;42627;42.646;23.642;2023-03-24T15:12:22;106.28;;;8.60;;
56752;SDS011;42627;42.646;23.642;2023-03-24T15:14:23;13.25;;;3.53;;
56752;SDS011;42627;42.646;23.642;2023-03-24T15:16:28;4.53;;;2.35;;
56752;SDS011;42627;42.646;23.642;2023-03-24T15:18:31;4.72;;;2.20;;
56752;SDS011;42627;42.646;23.642;2023-03-24T15:20:32;6.18;;;1.95;;
56752;SDS011;42627;42.646;23.642;2023-03-24T15:24:47;5.40;;;2.42;;
56752;SDS011;42627;42.646;23.642;2023-03-24T15:38:35;10.25;;;4.45;;
56752;SDS011;42627;42.646;23.642;2023-03-24T15:40:51;10.98;;;4.03;;
56752;SDS011;42627;42.646;23.642;2023-03-24T15:43:00;6.63;;;2.83;;
56752;SDS011;42627;42.646;23.642;2023-03-24T15:45:10;9.32;;;3.17;;
56752;SDS011;42627;42.646;23.642;2023-03-24T15:47:38;7.70;;;3.25;;
56752;SDS011;42627;42.646;23.642;2023-03-24T15:49:49;10.35;;;4.18;;
56752;SDS011;42627;42.646;23.642;2023-03-24T15:54:01;6.60;;;3.88;;
56752;SDS011;42627;42.646;23.642;2023-03-24T15:56:05;4.75;;;2.25;;
56752;SDS011;42627;42.646;23.642;2023-03-24T15:58:21;4.85;;;2.42;;
56752;SDS011;42627;42.646;23.642;2023-03-24T16:00:24;5.93;;;2.80;;
56752;SDS011;42627;42.646;23.642;2023-03-24T16:02:46;6.53;;;3.58;;
56752;SDS011;42627;42.646;23.642;2023-03-24T16:04:52;5.78;;;2.75;;
56752;SDS011;42627;42.646;23.642;2023-03-24T16:06:57;4.95;;;1.85;;
56752;SDS011;42627;42.646;23.642;2023-03-24T16:09:12;4.65;;;2.33;;
56752;SDS011;42627;42.646;23.642;2023-03-24T16:11:25;3.60;;;1.50;;
56752;SDS011;42627;42.646;23.642;2023-03-24T16:13:47;7.53;;;3.72;;
56752;SDS011;42627;42.646;23.642;2023-03-24T16:15:53;16.08;;;7.35;;
56752;SDS011;42627;42.646;23.642;2023-03-24T16:17:56;28.42;;;9.27;;
56752;SDS011;42627;42.646;23.642;2023-03-24T16:19:57;14.48;;;5.10;;
56752;SDS011;42627;42.646;23.642;2023-03-24T16:24:12;7.95;;;3.70;;
56752;SDS011;42627;42.646;23.642;2023-03-24T16:26:17;13.65;;;5.78;;
56752;SDS011;42627;42.646;23.642;2023-03-24T16:28:21;16.05;;;7.45;;
56752;SDS011;42627;42.646;23.642;2023-03-24T16:30:22;23.10;;;7.93;;
56752;SDS011;42627;42.646;23.642;2023-03-24T16:32:24;13.68;;;6.32;;
56752;SDS011;42627;42.646;23.642;2023-03-24T16:34:26;11.88;;;5.70;;
56752;SDS011;42627;42.646;23.642;2023-03-24T16:36:27;19.85;;;8.73;;
56752;SDS011;42627;42.646;23.642;2023-03-24T16:38:33;36.28;;;16.42;;
56752;SDS011;42627;42.646;23.642;2023-03-24T16:40:41;45.28;;;19.52;;
56752;SDS011;42627;42.646;23.642;2023-03-24T16:42:45;54.35;;;23.33;;
56752;SDS011;42627;42.646;23.642;2023-03-24T16:44:46;30.30;;;17.92;;
56752;SDS011;42627;42.646;23.642;2023-03-24T16:46:47;39.00;;;15.18;;
56752;SDS011;42627;42.646;23.642;2023-03-24T17:04:55;9.75;;;4.10;;
56752;SDS011;42627;42.646;23.642;2023-03-24T17:07:09;7.53;;;3.78;;
56752;SDS011;42627;42.646;23.642;2023-03-24T17:09:12;9.10;;;4.05;;
56752;SDS011;42627;42.646;23.642;2023-03-24T17:13:48;7.35;;;3.53;;
56752;SDS011;42627;42.646;23.642;2023-03-24T17:15:56;8.15;;;4.18;;
56752;SDS011;42627;42.646;23.642;2023-03-24T17:20:42;8.85;;;4.18;;
56752;SDS011;42627;42.646;23.642;2023-03-24T17:22:50;11.35;;;5.97;;
56752;SDS011;42627;42.646;23.642;2023-03-24T17:24:55;27.90;;;18.15;;
56752;SDS011;42627;42.646;23.642;2023-03-24T17:26:56;23.00;;;14.52;;
56752;SDS011;42627;42.646;23.642;2023-03-24T17:29:02;20.92;;;13.52;;
56752;SDS011;42627;42.646;23.642;2023-03-24T17:31:04;17.17;;;10.13;;
56752;SDS011;42627;42.646;23.642;2023-03-24T17:33:04;14.73;;;9.93;;
56752;SDS011;42627;42.646;23.642;2023-03-24T17:35:05;13.38;;;8.15;;
56752;SDS011;42627;42.646;23.642;2023-03-24T17:37:15;15.13;;;8.38;;
56752;SDS011;42627;42.646;23.642;2023-03-24T17:39:16;16.00;;;9.40;;
56752;SDS011;42627;42.646;23.642;2023-03-24T17:41:17;16.73;;;7.72;;
56752;SDS011;42627;42.646;23.642;2023-03-24T17:43:18;16.17;;;7.32;;
56752;SDS011;42627;42.646;23.642;2023-03-24T17:45:19;12.00;;;5.53;;
56752;SDS011;42627;42.646;23.642;2023-03-24T17:49:54;11.70;;;5.60;;
56752;SDS011;42627;42.646;23.642;2023-03-24T17:52:00;11.13;;;5.40;;
56752;SDS011;42627;42.646;23.642;2023-03-24T17:54:03;8.93;;;4.70;;
56752;SDS011;42627;42.646;23.642;2023-03-24T17:56:04;8.15;;;4.80;;
56752;SDS011;42627;42.646;23.642;2023-03-24T17:58:06;8.23;;;4.50;;
56752;SDS011;42627;42.646;23.642;2023-03-24T18:00:07;14.50;;;6.57;;
56752;SDS011;42627;42.646;23.642;2023-03-24T18:02:11;16.92;;;6.63;;
56752;SDS011;42627;42.646;23.642;2023-03-24T18:04:19;17.50;;;7.15;;
56752;SDS011;42627;42.646;23.642;2023-03-24T18:08:33;13.63;;;5.70;;
56752;SDS011;42627;42.646;23.642;2023-03-24T18:10:35;11.43;;;5.13;;
56752;SDS011;42627;42.646;23.642;2023-03-24T18:12:36;12.43;;;5.60;;
56752;SDS011;42627;42.646;23.642;2023-03-24T18:14:39;13.65;;;6.25;;
56752;SDS011;42627;42.646;23.642;2023-03-24T18:16:44;9.57;;;5.70;;